sensor_id;sensor_type;location;lat;lon;timestamp;temperature;humidity
15815;DHT22;8008;50.024;8.172;2022-12-07T04:00:28;5.80;99.90
15815;DHT22;8008;50.024;8.172;2022-12-07T04:02:56;5.70;99.90
15815;DHT22;8008;50.024;8.172;2022-12-07T04:05:25;5.60;99.90
15815;DHT22;8008;50.024;8.172;2022-12-07T04:07:53;5.60;99.90
15815;DHT22;8008;50.024;8.172;2022-12-07T04:10:23;5.60;99.90
15815;DHT22;8008;50.024;8.172;2022-12-07T04:12:51;5.50;99.90
15815;DHT22;8008;50.024;8.172;2022-12-07T04:15:18;5.50;99.90
15815;DHT22;8008;50.024;8.172;2022-12-07T04:17:48;5.60;99.90
15815;DHT22;8008;50.024;8.172;2022-12-07T04:20:16;5.60;99.90
15815;DHT22;8008;50.024;8.172;2022-12-07T04:22:44;5.60;99.90
15815;DHT22;8008;50.024;8.172;2022-12-07T04:25:11;5.60;99.90
15815;DHT22;8008;50.024;8.172;2022-12-07T04:27:39;5.60;99.90
15815;DHT22;8008;50.024;8.172;2022-12-07T04:30:08;5.60;99.90
15815;DHT22;8008;50.024;8.172;2022-12-07T04:32:36;5.60;99.90
15815;DHT22;8008;50.024;8.172;2022-12-07T04:35:06;5.70;99.90
15815;DHT22;8008;50.024;8.172;2022-12-07T04:37:34;5.60;99.90
15815;DHT22;8008;50.024;8.172;2022-12-07T04:40:03;5.70;99.90
15815;DHT22;8008;50.024;8.172;2022-12-07T04:42:31;5.70;99.90
15815;DHT22;8008;50.024;8.172;2022-12-07T04:44:59;5.60;99.90
15815;DHT22;8008;50.024;8.172;2022-12-07T04:47:29;5.60;99.90
15815;DHT22;8008;50.024;8.172;2022-12-07T04:49:57;5.60;99.90
15815;DHT22;8008;50.024;8.172;2022-12-07T04:52:26;5.60;99.90
15815;DHT22;8008;50.024;8.172;2022-12-07T04:54:54;5.50;99.90
15815;DHT22;8008;50.024;8.172;2022-12-07T04:57:22;5.60;99.90
15815;DHT22;8008;50.024;8.172;2022-12-07T04:59:50;5.60;99.90
15815;DHT22;8008;50.024;8.172;2022-12-07T05:02:18;5.60;99.90
15815;DHT22;8008;50.024;8.172;2022-12-07T05:04:46;5.60;99.90
15815;DHT22;8008;50.024;8.172;2022-12-07T05:07:14;5.60;99.90
15815;DHT22;8008;50.024;8.172;2022-12-07T05:09:43;5.70;99.90
15815;DHT22;8008;50.024;8.172;2022-12-07T05:12:11;5.80;99.90
15815;DHT22;8008;50.024;8.172;2022-12-07T05:14:39;5.80;99.90
15815;DHT22;8008;50.024;8.172;2022-12-07T05:17:07;5.80;99.90
15815;DHT22;8008;50.024;8.172;2022-12-07T05:19:35;5.80;99.90
15815;DHT22;8008;50.024;8.172;2022-12-07T05:22:03;5.80;99.90
15815;DHT22;8008;50.024;8.172;2022-12-07T05:24:30;5.80;99.90
15815;DHT22;8008;50.024;8.172;2022-12-07T05:27:00;5.80;99.90
15815;DHT22;8008;50.024;8.172;2022-12-07T05:29:28;5.80;99.90
15815;DHT22;8008;50.024;8.172;2022-12-07T05:31:55;5.80;99.90
15815;DHT22;8008;50.024;8.172;2022-12-07T05:34:24;5.90;99.90
15815;DHT22;8008;50.024;8.172;2022-12-07T05:36:52;5.90;99.90
15815;DHT22;8008;50.024;8.172;2022-12-07T05:39:20;5.90;99.90
15815;DHT22;8008;50.024;8.172;2022-12-07T05:41:48;5.90;99.90
15815;DHT22;8008;50.024;8.172;2022-12-07T05:44:36;5.90;99.90
15815;DHT22;8008;50.024;8.172;2022-12-07T05:47:04;5.90;99.90
15815;DHT22;8008;50.024;8.172;2022-12-07T05:49:32;5.90;99.90
15815;DHT22;8008;50.024;8.172;2022-12-07T05:52:00;5.90;99.90
15815;DHT22;8008;50.024;8.172;2022-12-07T05:54:28;5.90;99.90
15815;DHT22;8008;50.024;8.172;2022-12-07T05:56:56;5.90;99.90
15815;DHT22;8008;50.024;8.172;2022-12-07T05:59:24;6.00;99.90
15815;DHT22;8008;50.024;8.172;2022-12-07T06:01:54;6.00;99.90
15815;DHT22;8008;50.024;8.172;2022-12-07T06:04:24;6.00;99.90
15815;DHT22;8008;50.024;8.172;2022-12-07T06:06:52;6.00;99.90
15815;DHT22;8008;50.024;8.172;2022-12-07T06:09:21;6.00;99.90
15815;DHT22;8008;50.024;8.172;2022-12-07T06:11:49;6.00;99.90
15815;DHT22;8008;50.024;8.172;2022-12-07T06:14:35;5.90;99.90
15815;DHT22;8008;50.024;8.172;2022-12-07T06:17:05;5.90;99.90
15815;DHT22;8008;50.024;8.172;2022-12-07T06:19:33;5.90;99.90
15815;DHT22;8008;50.024;8.172;2022-12-07T06:22:02;5.80;99.90
15815;DHT22;8008;50.024;8.172;2022-12-07T06:24:31;5.80;99.90
15815;DHT22;8008;50.024;8.172;2022-12-07T06:27:00;5.70;99.90
15815;DHT22;8008;50.024;8.172;2022-12-07T06:29:27;5.70;99.90
15815;DHT22;8008;50.024;8.172;2022-12-07T06:31:55;5.70;99.90
15815;DHT22;8008;50.024;8.172;2022-12-07T06:34:25;5.70;99.90
15815;DHT22;8008;50.024;8.172;2022-12-07T06:36:54;5.70;99.90
15815;DHT22;8008;50.024;8.172;2022-12-07T06:39:24;5.70;99.90
15815;DHT22;8008;50.024;8.172;2022-12-07T06:41:52;5.60;99.90
15815;DHT22;8008;50.024;8.172;2022-12-07T06:44:21;5.70;99.90
15815;DHT22;8008;50.024;8.172;2022-12-07T06:46:50;5.60;99.90
15815;DHT22;8008;50.024;8.172;2022-12-07T06:49:33;5.60;99.90
15815;DHT22;8008;50.024;8.172;2022-12-07T06:52:01;5.70;99.90
15815;DHT22;8008;50.024;8.172;2022-12-07T06:54:31;5.60;99.90
15815;DHT22;8008;50.024;8.172;2022-12-07T06:56:59;5.70;99.90
15815;DHT22;8008;50.024;8.172;2022-12-07T06:59:27;5.60;99.90
15815;DHT22;8008;50.024;8.172;2022-12-07T07:01:54;5.70;99.90
15815;DHT22;8008;50.024;8.172;2022-12-07T07:04:22;5.70;99.90
15815;DHT22;8008;50.024;8.172;2022-12-07T07:06:52;5.60;99.90
15815;DHT22;8008;50.024;8.172;2022-12-07T07:09:27;5.70;99.90
15815;DHT22;8008;50.024;8.172;2022-12-07T07:11:55;5.60;99.90
15815;DHT22;8008;50.024;8.172;2022-12-07T07:14:23;5.60;99.90
15815;DHT22;8008;50.024;8.172;2022-12-07T07:16:50;5.70;99.90
15815;DHT22;8008;50.024;8.172;2022-12-07T07:19:20;5.70;99.90
15815;DHT22;8008;50.024;8.172;2022-12-07T07:21:47;5.60;99.90
15815;DHT22;8008;50.024;8.172;2022-12-07T07:24:24;5.60;99.90
15815;DHT22;8008;50.024;8.172;2022-12-07T07:26:53;5.70;99.90
15815;DHT22;8008;50.024;8.172;2022-12-07T07:29:21;5.70;99.90
15815;DHT22;8008;50.024;8.172;2022-12-07T07:31:49;5.70;99.90
15815;DHT22;8008;50.024;8.172;2022-12-07T07:34:18;5.80;99.90
15815;DHT22;8008;50.024;8.172;2022-12-07T07:36:46;5.80;99.90
15815;DHT22;8008;50.024;8.172;2022-12-07T07:39:14;5.90;99.90
15815;DHT22;8008;50.024;8.172;2022-12-07T07:41:44;5.80;99.90
15815;DHT22;8008;50.024;8.172;2022-12-07T07:44:16;5.80;99.90
15815;DHT22;8008;50.024;8.172;2022-12-07T07:46:44;5.80;99.90
15815;DHT22;8008;50.024;8.172;2022-12-07T07:49:12;5.80;99.90
15815;DHT22;8008;50.024;8.172;2022-12-07T07:51:40;5.80;99.90
15815;DHT22;8008;50.024;8.172;2022-12-07T07:54:08;5.90;99.90
15815;DHT22;8008;50.024;8.172;2022-12-07T07:56:36;5.90;99.90
15815;DHT22;8008;50.024;8.172;2022-12-07T07:59:06;5.90;99.90
15815;DHT22;8008;50.024;8.172;2022-12-07T08:01:34;5.80;99.90
15815;DHT22;8008;50.024;8.172;2022-12-07T08:04:04;5.80;99.90
15815;DHT22;8008;50.024;8.172;2022-12-07T08:06:35;5.90;99.90
15815;DHT22;8008;50.024;8.172;2022-12-07T08:09:03;5.90;99.90
15815;DHT22;8008;50.024;8.172;2022-12-07T08:11:32;5.90;99.90
15815;DHT22;8008;50.024;8.172;2022-12-07T08:14:00;5.90;99.90
15815;DHT22;8008;50.024;8.172;2022-12-07T08:16:30;5.90;99.90
15815;DHT22;8008;50.024;8.172;2022-12-07T08:18:58;5.90;99.90
15815;DHT22;8008;50.024;8.172;2022-12-07T08:21:26;5.90;99.90
15815;DHT22;8008;50.024;8.172;2022-12-07T08:23:55;5.90;99.90
15815;DHT22;8008;50.024;8.172;2022-12-07T08:26:24;5.80;99.90
15815;DHT22;8008;50.024;8.172;2022-12-07T08:28:52;5.80;99.90
15815;DHT22;8008;50.024;8.172;2022-12-07T08:31:20;5.80;99.90
15815;DHT22;8008;50.024;8.172;2022-12-07T08:33:50;5.90;99.90
15815;DHT22;8008;50.024;8.172;2022-12-07T08:36:19;5.80;99.90
15815;DHT22;8008;50.024;8.172;2022-12-07T08:38:48;5.90;99.90
15815;DHT22;8008;50.024;8.172;2022-12-07T08:41:36;5.90;99.90
15815;DHT22;8008;50.024;8.172;2022-12-07T08:44:04;6.00;99.90
15815;DHT22;8008;50.024;8.172;2022-12-07T08:46:34;6.00;99.90
15815;DHT22;8008;50.024;8.172;2022-12-07T08:49:09;5.90;99.90
15815;DHT22;8008;50.024;8.172;2022-12-07T08:51:39;5.90;99.90
15815;DHT22;8008;50.024;8.172;2022-12-07T08:54:11;6.00;99.90
15815;DHT22;8008;50.024;8.172;2022-12-07T08:56:41;6.10;99.90
15815;DHT22;8008;50.024;8.172;2022-12-07T08:59:10;6.20;99.90
15815;DHT22;8008;50.024;8.172;2022-12-07T09:01:40;6.20;99.90
15815;DHT22;8008;50.024;8.172;2022-12-07T09:04:09;6.10;99.90
15815;DHT22;8008;50.024;8.172;2022-12-07T09:06:38;6.10;99.90
15815;DHT22;8008;50.024;8.172;2022-12-07T09:09:12;6.20;99.90
15815;DHT22;8008;50.024;8.172;2022-12-07T09:11:40;6.20;99.90
15815;DHT22;8008;50.024;8.172;2022-12-07T09:14:08;6.30;99.90
15815;DHT22;8008;50.024;8.172;2022-12-07T09:16:36;6.30;99.90
15815;DHT22;8008;50.024;8.172;2022-12-07T09:19:04;6.30;99.90
15815;DHT22;8008;50.024;8.172;2022-12-07T09:21:33;6.30;99.90
15815;DHT22;8008;50.024;8.172;2022-12-07T09:24:01;6.30;99.90
15815;DHT22;8008;50.024;8.172;2022-12-07T09:26:29;6.40;99.90
15815;DHT22;8008;50.024;8.172;2022-12-07T09:28:57;6.40;99.90
15815;DHT22;8008;50.024;8.172;2022-12-07T09:31:36;6.40;99.90
15815;DHT22;8008;50.024;8.172;2022-12-07T09:34:04;6.30;99.90
15815;DHT22;8008;50.024;8.172;2022-12-07T09:36:35;6.40;99.90
15815;DHT22;8008;50.024;8.172;2022-12-07T09:39:03;6.40;99.90
15815;DHT22;8008;50.024;8.172;2022-12-07T09:41:32;6.50;99.90
15815;DHT22;8008;50.024;8.172;2022-12-07T09:44:09;6.50;99.90
15815;DHT22;8008;50.024;8.172;2022-12-07T09:46:40;6.60;99.90
15815;DHT22;8008;50.024;8.172;2022-12-07T09:49:12;6.70;99.90
15815;DHT22;8008;50.024;8.172;2022-12-07T09:51:42;6.80;99.90
15815;DHT22;8008;50.024;8.172;2022-12-07T09:54:13;6.80;99.90
15815;DHT22;8008;50.024;8.172;2022-12-07T09:56:43;6.90;99.90
15815;DHT22;8008;50.024;8.172;2022-12-07T09:59:15;6.80;99.90
15815;DHT22;8008;50.024;8.172;2022-12-07T10:01:46;6.80;99.90
15815;DHT22;8008;50.024;8.172;2022-12-07T10:04:17;6.90;99.90
15815;DHT22;8008;50.024;8.172;2022-12-07T10:06:50;6.80;99.90
15815;DHT22;8008;50.024;8.172;2022-12-07T10:09:20;6.80;99.90
15815;DHT22;8008;50.024;8.172;2022-12-07T10:12:03;6.80;99.90
15815;DHT22;8008;50.024;8.172;2022-12-07T10:14:34;6.80;99.90
15815;DHT22;8008;50.024;8.172;2022-12-07T10:17:35;6.80;99.90
15815;DHT22;8008;50.024;8.172;2022-12-07T10:20:23;6.80;99.90
15815;DHT22;8008;50.024;8.172;2022-12-07T10:23:13;6.80;99.90
15815;DHT22;8008;50.024;8.172;2022-12-07T10:25:42;6.80;99.90
15815;DHT22;8008;50.024;8.172;2022-12-07T10:28:15;6.80;99.90
15815;DHT22;8008;50.024;8.172;2022-12-07T10:30:48;6.80;99.90
15815;DHT22;8008;50.024;8.172;2022-12-07T10:33:35;6.70;99.90
15815;DHT22;8008;50.024;8.172;2022-12-07T10:36:18;6.80;99.90
15815;DHT22;8008;50.024;8.172;2022-12-07T10:38:50;6.80;99.90
15815;DHT22;8008;50.024;8.172;2022-12-07T10:41:18;6.80;99.90
15815;DHT22;8008;50.024;8.172;2022-12-07T10:43:48;6.80;99.90
15815;DHT22;8008;50.024;8.172;2022-12-07T10:46:46;6.90;99.90
15815;DHT22;8008;50.024;8.172;2022-12-07T10:49:49;7.00;99.90
15815;DHT22;8008;50.024;8.172;2022-12-07T10:52:28;7.00;99.90
15815;DHT22;8008;50.024;8.172;2022-12-07T10:55:16;7.10;99.90
15815;DHT22;8008;50.024;8.172;2022-12-07T10:57:59;7.20;99.90
15815;DHT22;8008;50.024;8.172;2022-12-07T11:00:37;7.30;99.90
15815;DHT22;8008;50.024;8.172;2022-12-07T11:03:28;7.40;99.90
15815;DHT22;8008;50.024;8.172;2022-12-07T11:06:10;7.50;99.90
15815;DHT22;8008;50.024;8.172;2022-12-07T11:08:48;7.60;99.90
15815;DHT22;8008;50.024;8.172;2022-12-07T11:11:23;7.70;99.90
15815;DHT22;8008;50.024;8.172;2022-12-07T11:13:59;7.70;99.90
15815;DHT22;8008;50.024;8.172;2022-12-07T11:16:38;7.70;99.90
15815;DHT22;8008;50.024;8.172;2022-12-07T11:19:21;7.80;99.90
15815;DHT22;8008;50.024;8.172;2022-12-07T11:21:57;7.80;99.90
15815;DHT22;8008;50.024;8.172;2022-12-07T11:24:30;7.80;99.90
15815;DHT22;8008;50.024;8.172;2022-12-07T11:27:09;7.90;99.90
15815;DHT22;8008;50.024;8.172;2022-12-07T11:30:08;8.00;99.90
15815;DHT22;8008;50.024;8.172;2022-12-07T11:32:51;8.00;99.90
15815;DHT22;8008;50.024;8.172;2022-12-07T11:35:29;8.10;99.90
15815;DHT22;8008;50.024;8.172;2022-12-07T11:38:10;8.10;99.90
15815;DHT22;8008;50.024;8.172;2022-12-07T11:40:40;8.10;99.90
15815;DHT22;8008;50.024;8.172;2022-12-07T11:43:18;8.00;99.90
15815;DHT22;8008;50.024;8.172;2022-12-07T11:45:54;7.90;99.90
15815;DHT22;8008;50.024;8.172;2022-12-07T11:48:30;7.80;99.90
15815;DHT22;8008;50.024;8.172;2022-12-07T11:51:01;7.70;99.90
15815;DHT22;8008;50.024;8.172;2022-12-07T11:53:34;7.60;99.90
15815;DHT22;8008;50.024;8.172;2022-12-07T11:56:07;7.40;99.90
15815;DHT22;8008;50.024;8.172;2022-12-07T11:58:45;7.40;99.90
15815;DHT22;8008;50.024;8.172;2022-12-07T12:01:27;7.30;99.90
15815;DHT22;8008;50.024;8.172;2022-12-07T12:04:02;7.20;99.90
15815;DHT22;8008;50.024;8.172;2022-12-07T12:06:33;7.30;99.90
15815;DHT22;8008;50.024;8.172;2022-12-07T12:09:05;7.40;99.90
15815;DHT22;8008;50.024;8.172;2022-12-07T12:12:08;7.40;99.90
15815;DHT22;8008;50.024;8.172;2022-12-07T12:15:15;7.30;99.90
15815;DHT22;8008;50.024;8.172;2022-12-07T12:18:03;7.20;99.90
15815;DHT22;8008;50.024;8.172;2022-12-07T12:20:37;7.20;99.90
15815;DHT22;8008;50.024;8.172;2022-12-07T12:23:12;7.20;99.90
15815;DHT22;8008;50.024;8.172;2022-12-07T12:25:43;7.10;99.90
15815;DHT22;8008;50.024;8.172;2022-12-07T12:28:25;7.10;99.90
15815;DHT22;8008;50.024;8.172;2022-12-07T12:31:08;7.00;99.90
15815;DHT22;8008;50.024;8.172;2022-12-07T12:33:37;7.00;99.90
15815;DHT22;8008;50.024;8.172;2022-12-07T12:36:21;6.90;99.90
15815;DHT22;8008;50.024;8.172;2022-12-07T12:38:52;7.00;99.90
15815;DHT22;8008;50.024;8.172;2022-12-07T12:41:57;7.10;99.90
15815;DHT22;8008;50.024;8.172;2022-12-07T12:45:17;7.10;99.90
15815;DHT22;8008;50.024;8.172;2022-12-07T12:47:57;7.20;99.90
15815;DHT22;8008;50.024;8.172;2022-12-07T12:50:28;7.20;99.90
15815;DHT22;8008;50.024;8.172;2022-12-07T12:53:12;7.20;99.90
15815;DHT22;8008;50.024;8.172;2022-12-07T12:56:11;7.30;99.90
15815;DHT22;8008;50.024;8.172;2022-12-07T12:58:45;7.30;99.90
15815;DHT22;8008;50.024;8.172;2022-12-07T13:01:44;7.30;99.90
15815;DHT22;8008;50.024;8.172;2022-12-07T13:10:41;7.60;99.90
15815;DHT22;8008;50.024;8.172;2022-12-07T13:13:29;7.80;99.90
15815;DHT22;8008;50.024;8.172;2022-12-07T13:18:59;7.80;99.90
15815;DHT22;8008;50.024;8.172;2022-12-07T13:21:43;7.90;99.90
15815;DHT22;8008;50.024;8.172;2022-12-07T13:24:12;8.00;99.90
15815;DHT22;8008;50.024;8.172;2022-12-07T13:26:43;7.90;99.90
15815;DHT22;8008;50.024;8.172;2022-12-07T13:29:13;7.90;99.90
15815;DHT22;8008;50.024;8.172;2022-12-07T13:31:43;7.80;99.90
15815;DHT22;8008;50.024;8.172;2022-12-07T13:34:30;7.90;99.90
15815;DHT22;8008;50.024;8.172;2022-12-07T13:37:00;7.90;99.90
15815;DHT22;8008;50.024;8.172;2022-12-07T13:39:29;7.80;99.90
15815;DHT22;8008;50.024;8.172;2022-12-07T13:41:58;7.80;99.90
15815;DHT22;8008;50.024;8.172;2022-12-07T13:44:33;7.80;99.90
15815;DHT22;8008;50.024;8.172;2022-12-07T13:47:15;7.80;99.90
15815;DHT22;8008;50.024;8.172;2022-12-07T13:49:48;7.80;99.90
15815;DHT22;8008;50.024;8.172;2022-12-07T13:52:22;7.90;99.90
15815;DHT22;8008;50.024;8.172;2022-12-07T13:54:56;8.00;99.90
15815;DHT22;8008;50.024;8.172;2022-12-07T13:57:27;8.00;99.90
15815;DHT22;8008;50.024;8.172;2022-12-07T13:59:57;8.00;99.90
15815;DHT22;8008;50.024;8.172;2022-12-07T14:02:27;8.00;99.90
15815;DHT22;8008;50.024;8.172;2022-12-07T14:05:08;8.00;99.90
15815;DHT22;8008;50.024;8.172;2022-12-07T14:07:49;8.00;99.90
15815;DHT22;8008;50.024;8.172;2022-12-07T14:10:25;7.90;99.90
15815;DHT22;8008;50.024;8.172;2022-12-07T14:12:56;7.90;99.90
15815;DHT22;8008;50.024;8.172;2022-12-07T14:15:26;7.90;99.90
15815;DHT22;8008;50.024;8.172;2022-12-07T14:17:56;7.80;99.90
15815;DHT22;8008;50.024;8.172;2022-12-07T14:20:31;7.80;99.90
15815;DHT22;8008;50.024;8.172;2022-12-07T14:22:59;7.80;99.90
15815;DHT22;8008;50.024;8.172;2022-12-07T14:25:45;7.80;99.90
15815;DHT22;8008;50.024;8.172;2022-12-07T14:28:27;7.80;99.90
15815;DHT22;8008;50.024;8.172;2022-12-07T14:30:55;7.80;99.90
15815;DHT22;8008;50.024;8.172;2022-12-07T14:33:24;7.70;99.90
15815;DHT22;8008;50.024;8.172;2022-12-07T14:35:52;7.80;99.90
15815;DHT22;8008;50.024;8.172;2022-12-07T14:38:21;7.70;99.90
15815;DHT22;8008;50.024;8.172;2022-12-07T14:40:51;7.70;99.90
15815;DHT22;8008;50.024;8.172;2022-12-07T14:43:20;7.80;99.90
15815;DHT22;8008;50.024;8.172;2022-12-07T14:45:49;7.70;99.90
15815;DHT22;8008;50.024;8.172;2022-12-07T14:48:17;7.80;99.90
15815;DHT22;8008;50.024;8.172;2022-12-07T14:51:05;7.80;99.90
15815;DHT22;8008;50.024;8.172;2022-12-07T14:53:55;7.70;99.90
15815;DHT22;8008;50.024;8.172;2022-12-07T14:56:23;7.70;99.90
15815;DHT22;8008;50.024;8.172;2022-12-07T14:58:51;7.70;99.90
15815;DHT22;8008;50.024;8.172;2022-12-07T15:01:20;7.50;99.90
15815;DHT22;8008;50.024;8.172;2022-12-07T15:03:48;7.50;99.90
15815;DHT22;8008;50.024;8.172;2022-12-07T15:06:17;7.30;99.90
15815;DHT22;8008;50.024;8.172;2022-12-07T15:08:45;7.30;99.90
15815;DHT22;8008;50.024;8.172;2022-12-07T15:11:14;7.10;99.90
15815;DHT22;8008;50.024;8.172;2022-12-07T15:13:42;7.00;99.90
15815;DHT22;8008;50.024;8.172;2022-12-07T15:16:29;7.00;99.90
15815;DHT22;8008;50.024;8.172;2022-12-07T15:19:19;7.00;99.90
15815;DHT22;8008;50.024;8.172;2022-12-07T15:21:54;7.00;99.90
15815;DHT22;8008;50.024;8.172;2022-12-07T15:24:22;6.90;99.90
15815;DHT22;8008;50.024;8.172;2022-12-07T15:26:51;6.90;99.90
15815;DHT22;8008;50.024;8.172;2022-12-07T15:29:19;6.90;99.90
15815;DHT22;8008;50.024;8.172;2022-12-07T15:31:51;6.90;99.90
15815;DHT22;8008;50.024;8.172;2022-12-07T15:34:24;6.80;99.90
15815;DHT22;8008;50.024;8.172;2022-12-07T15:36:53;6.80;99.90
15815;DHT22;8008;50.024;8.172;2022-12-07T15:39:21;6.70;99.90
15815;DHT22;8008;50.024;8.172;2022-12-07T15:41:49;6.70;99.90
15815;DHT22;8008;50.024;8.172;2022-12-07T15:44:17;6.60;99.90
15815;DHT22;8008;50.024;8.172;2022-12-07T15:47:05;6.50;99.90
15815;DHT22;8008;50.024;8.172;2022-12-07T15:49:33;6.50;99.90
15815;DHT22;8008;50.024;8.172;2022-12-07T15:52:01;6.50;99.90
15815;DHT22;8008;50.024;8.172;2022-12-07T15:54:30;6.40;99.90
15815;DHT22;8008;50.024;8.172;2022-12-07T15:56:58;6.40;99.90
15815;DHT22;8008;50.024;8.172;2022-12-07T15:59:27;6.30;99.90
15815;DHT22;8008;50.024;8.172;2022-12-07T16:01:55;6.30;99.90
15815;DHT22;8008;50.024;8.172;2022-12-07T16:04:26;6.20;99.90
15815;DHT22;8008;50.024;8.172;2022-12-07T16:06:54;6.20;99.90
15815;DHT22;8008;50.024;8.172;2022-12-07T16:09:23;6.10;99.90
15815;DHT22;8008;50.024;8.172;2022-12-07T16:11:50;6.10;99.90
15815;DHT22;8008;50.024;8.172;2022-12-07T16:14:18;6.10;99.90
15815;DHT22;8008;50.024;8.172;2022-12-07T16:16:47;6.00;99.90
15815;DHT22;8008;50.024;8.172;2022-12-07T16:19:15;6.10;99.90
15815;DHT22;8008;50.024;8.172;2022-12-07T16:21:44;6.10;99.90
15815;DHT22;8008;50.024;8.172;2022-12-07T16:24:13;6.10;99.90
15815;DHT22;8008;50.024;8.172;2022-12-07T16:26:42;6.10;99.90
15815;DHT22;8008;50.024;8.172;2022-12-07T16:29:16;6.10;99.90
15815;DHT22;8008;50.024;8.172;2022-12-07T16:31:44;6.10;99.90
15815;DHT22;8008;50.024;8.172;2022-12-07T16:34:12;6.10;99.90
15815;DHT22;8008;50.024;8.172;2022-12-07T16:36:40;6.10;99.90
15815;DHT22;8008;50.024;8.172;2022-12-07T16:39:29;6.10;99.90
15815;DHT22;8008;50.024;8.172;2022-12-07T16:41:57;6.10;99.90
15815;DHT22;8008;50.024;8.172;2022-12-07T16:44:26;6.10;99.90
15815;DHT22;8008;50.024;8.172;2022-12-07T16:46:53;6.10;99.90
15815;DHT22;8008;50.024;8.172;2022-12-07T16:49:21;6.10;99.90
15815;DHT22;8008;50.024;8.172;2022-12-07T16:51:50;6.00;99.90
15815;DHT22;8008;50.024;8.172;2022-12-07T16:54:40;5.90;99.90
15815;DHT22;8008;50.024;8.172;2022-12-07T16:57:08;5.90;99.90
15815;DHT22;8008;50.024;8.172;2022-12-07T16:59:36;5.90;99.90
15815;DHT22;8008;50.024;8.172;2022-12-07T17:02:04;5.90;99.90
15815;DHT22;8008;50.024;8.172;2022-12-07T17:04:33;5.80;99.90
15815;DHT22;8008;50.024;8.172;2022-12-07T17:07:01;5.90;99.90
15815;DHT22;8008;50.024;8.172;2022-12-07T17:09:29;5.90;99.90
15815;DHT22;8008;50.024;8.172;2022-12-07T17:11:59;5.90;99.90
15815;DHT22;8008;50.024;8.172;2022-12-07T17:14:27;5.90;99.90
15815;DHT22;8008;50.024;8.172;2022-12-07T17:17:13;5.90;99.90
15815;DHT22;8008;50.024;8.172;2022-12-07T17:19:41;5.90;99.90
15815;DHT22;8008;50.024;8.172;2022-12-07T17:22:09;5.90;99.90
15815;DHT22;8008;50.024;8.172;2022-12-07T17:24:39;5.90;99.90
15815;DHT22;8008;50.024;8.172;2022-12-07T17:27:08;5.90;99.90
15815;DHT22;8008;50.024;8.172;2022-12-07T17:29:37;5.90;99.90
15815;DHT22;8008;50.024;8.172;2022-12-07T17:32:05;5.90;99.90
15815;DHT22;8008;50.024;8.172;2022-12-07T17:34:33;5.90;99.90
15815;DHT22;8008;50.024;8.172;2022-12-07T17:37:03;6.00;99.90
15815;DHT22;8008;50.024;8.172;2022-12-07T17:39:31;6.00;99.90
15815;DHT22;8008;50.024;8.172;2022-12-07T17:41:59;6.00;99.90
15815;DHT22;8008;50.024;8.172;2022-12-07T17:44:46;6.00;99.90
15815;DHT22;8008;50.024;8.172;2022-12-07T17:47:14;6.10;99.90
15815;DHT22;8008;50.024;8.172;2022-12-07T17:49:43;6.10;99.90
15815;DHT22;8008;50.024;8.172;2022-12-07T17:52:12;6.10;99.90
15815;DHT22;8008;50.024;8.172;2022-12-07T17:54:57;6.10;99.90
15815;DHT22;8008;50.024;8.172;2022-12-07T17:57:25;6.20;99.90
15815;DHT22;8008;50.024;8.172;2022-12-07T17:59:54;6.20;99.90
15815;DHT22;8008;50.024;8.172;2022-12-07T18:02:23;6.20;99.90
15815;DHT22;8008;50.024;8.172;2022-12-07T18:04:50;6.20;99.90
15815;DHT22;8008;50.024;8.172;2022-12-07T18:07:19;6.20;99.90
15815;DHT22;8008;50.024;8.172;2022-12-07T18:09:47;6.20;99.90
15815;DHT22;8008;50.024;8.172;2022-12-07T18:12:15;6.20;99.90
15815;DHT22;8008;50.024;8.172;2022-12-07T18:14:43;6.20;99.90
15815;DHT22;8008;50.024;8.172;2022-12-07T18:17:12;6.20;99.90
15815;DHT22;8008;50.024;8.172;2022-12-07T18:19:40;6.20;99.90
15815;DHT22;8008;50.024;8.172;2022-12-07T18:22:08;6.20;99.90
15815;DHT22;8008;50.024;8.172;2022-12-07T18:24:36;6.20;99.90
15815;DHT22;8008;50.024;8.172;2022-12-07T18:27:05;6.20;99.90
15815;DHT22;8008;50.024;8.172;2022-12-07T18:29:34;6.20;99.90
15815;DHT22;8008;50.024;8.172;2022-12-07T18:32:02;6.20;99.90
15815;DHT22;8008;50.024;8.172;2022-12-07T18:34:33;6.20;99.90
15815;DHT22;8008;50.024;8.172;2022-12-07T18:37:01;6.10;99.90
15815;DHT22;8008;50.024;8.172;2022-12-07T18:39:29;6.10;99.90
15815;DHT22;8008;50.024;8.172;2022-12-07T18:42:00;6.20;99.90
15815;DHT22;8008;50.024;8.172;2022-12-07T18:44:28;6.10;99.90
15815;DHT22;8008;50.024;8.172;2022-12-07T18:46:56;6.10;99.90
15815;DHT22;8008;50.024;8.172;2022-12-07T18:49:24;6.10;99.90
15815;DHT22;8008;50.024;8.172;2022-12-07T18:51:53;6.10;99.90
15815;DHT22;8008;50.024;8.172;2022-12-07T18:54:22;6.10;99.90
15815;DHT22;8008;50.024;8.172;2022-12-07T18:56:50;6.10;99.90
15815;DHT22;8008;50.024;8.172;2022-12-07T18:59:17;6.10;99.90
15815;DHT22;8008;50.024;8.172;2022-12-07T19:02:03;6.00;99.90
15815;DHT22;8008;50.024;8.172;2022-12-07T19:04:31;6.00;99.90
15815;DHT22;8008;50.024;8.172;2022-12-07T19:07:00;6.00;99.90
15815;DHT22;8008;50.024;8.172;2022-12-07T19:09:31;5.90;99.90
15815;DHT22;8008;50.024;8.172;2022-12-07T19:11:59;6.00;99.90
15815;DHT22;8008;50.024;8.172;2022-12-07T19:14:32;5.90;99.90
15815;DHT22;8008;50.024;8.172;2022-12-07T19:17:02;5.90;99.90
15815;DHT22;8008;50.024;8.172;2022-12-07T19:19:36;5.80;99.90
15815;DHT22;8008;50.024;8.172;2022-12-07T19:22:07;5.80;99.90
15815;DHT22;8008;50.024;8.172;2022-12-07T19:24:35;5.80;99.90
15815;DHT22;8008;50.024;8.172;2022-12-07T19:27:03;5.80;99.90
15815;DHT22;8008;50.024;8.172;2022-12-07T19:29:31;5.80;99.90
15815;DHT22;8008;50.024;8.172;2022-12-07T19:32:01;5.80;99.90
15815;DHT22;8008;50.024;8.172;2022-12-07T19:34:30;5.90;99.90
15815;DHT22;8008;50.024;8.172;2022-12-07T19:36:58;5.90;99.90
15815;DHT22;8008;50.024;8.172;2022-12-07T19:39:27;5.90;99.90
15815;DHT22;8008;50.024;8.172;2022-12-07T19:41:57;5.80;99.90
15815;DHT22;8008;50.024;8.172;2022-12-07T19:44:26;5.80;99.90
15815;DHT22;8008;50.024;8.172;2022-12-07T19:46:57;5.80;99.90
15815;DHT22;8008;50.024;8.172;2022-12-07T19:49:32;5.80;99.90
15815;DHT22;8008;50.024;8.172;2022-12-07T19:52:02;5.80;99.90
15815;DHT22;8008;50.024;8.172;2022-12-07T19:54:32;5.80;99.90
15815;DHT22;8008;50.024;8.172;2022-12-07T19:57:00;5.80;99.90
15815;DHT22;8008;50.024;8.172;2022-12-07T19:59:30;5.80;99.90
15815;DHT22;8008;50.024;8.172;2022-12-07T20:01:58;5.80;99.90
15815;DHT22;8008;50.024;8.172;2022-12-07T20:04:28;5.80;99.90
15815;DHT22;8008;50.024;8.172;2022-12-07T20:06:59;5.80;99.90
15815;DHT22;8008;50.024;8.172;2022-12-07T20:09:27;5.80;99.90
15815;DHT22;8008;50.024;8.172;2022-12-07T20:11:57;5.80;99.90
15815;DHT22;8008;50.024;8.172;2022-12-07T20:14:42;5.90;99.90
15815;DHT22;8008;50.024;8.172;2022-12-07T20:17:14;5.80;99.90
15815;DHT22;8008;50.024;8.172;2022-12-07T20:19:42;5.90;99.90
15815;DHT22;8008;50.024;8.172;2022-12-07T20:22:10;5.90;99.90
15815;DHT22;8008;50.024;8.172;2022-12-07T20:24:38;6.00;99.90
15815;DHT22;8008;50.024;8.172;2022-12-07T20:27:07;6.00;99.90
15815;DHT22;8008;50.024;8.172;2022-12-07T20:29:35;6.00;99.90
15815;DHT22;8008;50.024;8.172;2022-12-07T20:32:04;6.00;99.90
15815;DHT22;8008;50.024;8.172;2022-12-07T20:34:32;6.00;99.90
15815;DHT22;8008;50.024;8.172;2022-12-07T20:36:59;6.00;99.90
15815;DHT22;8008;50.024;8.172;2022-12-07T20:39:27;6.10;99.90
15815;DHT22;8008;50.024;8.172;2022-12-07T20:41:56;6.10;99.90